createdAt,value
2023-05-24T00:01:58.264Z,0
2023-05-24T00:05:23.445Z,0
2023-05-24T00:08:48.673Z,0
2023-05-24T00:12:13.878Z,0
2023-05-24T00:15:39.090Z,0
2023-05-24T00:19:04.340Z,0
2023-05-24T00:22:29.533Z,0
2023-05-24T00:25:54.754Z,0
2023-05-24T00:29:19.979Z,0
2023-05-24T00:32:45.214Z,0
2023-05-24T00:36:10.463Z,0
2023-05-24T00:39:35.691Z,0
2023-05-24T00:43:00.906Z,0
2023-05-24T00:46:26.130Z,0
2023-05-24T00:49:51.335Z,0
2023-05-24T00:53:16.598Z,0
2023-05-24T00:56:41.780Z,0
2023-05-24T01:00:06.970Z,0
2023-05-24T01:03:32.334Z,0
2023-05-24T01:06:57.448Z,0
2023-05-24T01:10:22.700Z,0
2023-05-24T01:13:47.904Z,0
2023-05-24T01:17:13.078Z,0
2023-05-24T01:20:38.769Z,0
2023-05-24T01:24:03.538Z,0
2023-05-24T01:27:28.783Z,0
2023-05-24T01:30:53.971Z,0
2023-05-24T01:34:19.166Z,0
2023-05-24T01:37:44.376Z,0
2023-05-24T01:41:09.582Z,0
2023-05-24T01:44:34.808Z,0
2023-05-24T01:47:59.999Z,0
2023-05-24T01:51:25.228Z,0
2023-05-24T01:54:50.452Z,0
2023-05-24T01:58:15.659Z,0
2023-05-24T02:01:40.922Z,0
2023-05-24T02:05:06.057Z,0
2023-05-24T02:08:31.266Z,0
2023-05-24T02:11:56.484Z,0
2023-05-24T02:15:21.706Z,0
2023-05-24T02:18:46.951Z,0
2023-05-24T02:22:12.116Z,0
2023-05-24T02:25:37.313Z,0
2023-05-24T02:29:02.513Z,0
2023-05-24T02:32:27.739Z,0
2023-05-24T02:35:52.977Z,0
2023-05-24T02:39:18.142Z,0
2023-05-24T02:42:43.352Z,0
2023-05-24T02:46:08.591Z,0
2023-05-24T02:49:33.791Z,0
2023-05-24T02:52:59.035Z,0
2023-05-24T02:56:24.226Z,0
2023-05-24T02:59:49.423Z,1
2023-05-24T03:03:14.720Z,1
2023-05-24T03:06:39.858Z,1
2023-05-24T03:10:05.125Z,1
2023-05-24T03:13:30.360Z,2
2023-05-24T03:16:55.577Z,3
2023-05-24T03:20:20.796Z,5
2023-05-24T03:23:46.024Z,5
2023-05-24T03:27:11.453Z,6
2023-05-24T03:30:36.434Z,6
2023-05-24T03:34:01.685Z,8
2023-05-24T03:37:26.908Z,11
2023-05-24T03:40:52.133Z,13
2023-05-24T03:44:17.403Z,13
2023-05-24T03:47:42.622Z,16
2023-05-24T03:51:07.809Z,23
2023-05-24T03:54:33.034Z,25
2023-05-24T03:57:58.307Z,31
2023-05-24T04:01:33.141Z,33
2023-05-24T04:04:48.753Z,31
2023-05-24T04:08:13.976Z,38
2023-05-24T04:11:39.212Z,43
2023-05-24T04:15:04.429Z,39
2023-05-24T04:18:29.783Z,44
2023-05-24T04:21:54.841Z,51
2023-05-24T04:25:20.124Z,57
2023-05-24T04:28:45.299Z,51
2023-05-24T04:32:10.539Z,52
2023-05-24T04:35:35.749Z,48
2023-05-24T04:39:01.269Z,52
2023-05-24T04:42:26.527Z,53
2023-05-24T04:45:51.747Z,44
2023-05-24T04:49:16.992Z,49
2023-05-24T04:52:42.261Z,56
2023-05-24T04:56:07.500Z,64
2023-05-24T04:59:33.003Z,92
2023-05-24T05:02:58.321Z,106
2023-05-24T05:06:23.448Z,118
2023-05-24T05:09:48.726Z,130
2023-05-24T05:13:13.904Z,97
2023-05-24T05:16:39.510Z,103
2023-05-24T05:20:04.697Z,101
2023-05-24T05:23:29.914Z,124
2023-05-24T05:26:55.192Z,177
2023-05-24T05:30:20.366Z,196
2023-05-24T05:33:45.621Z,178
2023-05-24T05:37:10.820Z,205
2023-05-24T05:40:36.059Z,284
2023-05-24T05:44:01.299Z,253
2023-05-24T05:47:26.504Z,227
2023-05-24T05:50:51.707Z,214
2023-05-24T05:54:16.926Z,175
2023-05-24T05:57:42.140Z,175
2023-05-24T06:01:07.371Z,191
2023-05-24T06:04:32.638Z,122
2023-05-24T06:07:57.850Z,129
2023-05-24T06:11:23.061Z,217
2023-05-24T06:14:48.323Z,165
2023-05-24T06:18:13.570Z,156
2023-05-24T06:21:38.780Z,143
2023-05-24T06:25:04.014Z,202
2023-05-24T06:28:29.218Z,238
2023-05-24T06:31:54.513Z,327
2023-05-24T06:35:19.703Z,358
2023-05-24T06:38:44.908Z,248
2023-05-24T06:42:10.122Z,266
2023-05-24T06:45:35.339Z,327
2023-05-24T06:49:00.762Z,353
2023-05-24T06:52:25.892Z,273
2023-05-24T06:55:51.053Z,330
2023-05-24T06:59:16.319Z,306
2023-05-24T07:02:41.583Z,300
2023-05-24T07:06:06.745Z,272
2023-05-24T07:09:31.993Z,362
2023-05-24T07:12:57.198Z,483
2023-05-24T07:16:22.496Z,468
2023-05-24T07:19:47.668Z,640
2023-05-24T07:23:12.943Z,1417
2023-05-24T07:26:38.251Z,1412
2023-05-24T07:30:03.460Z,495
2023-05-24T07:33:28.699Z,478
2023-05-24T07:36:53.896Z,395
2023-05-24T07:40:19.164Z,813
2023-05-24T07:43:44.420Z,729
2023-05-24T07:47:09.837Z,1714
2023-05-24T07:50:35.084Z,1546
2023-05-24T07:54:00.276Z,1665
2023-05-24T07:57:25.471Z,1281
2023-05-24T08:00:50.758Z,1661
2023-05-24T08:04:15.885Z,1660
2023-05-24T08:07:41.125Z,1653
2023-05-24T08:11:06.348Z,1628
2023-05-24T08:14:31.581Z,1673
2023-05-24T08:17:56.926Z,1699
2023-05-24T08:21:22.037Z,1663
2023-05-24T08:24:47.253Z,1226
2023-05-24T08:28:12.484Z,1309
2023-05-24T08:31:37.719Z,884
2023-05-24T08:35:10.979Z,1144
2023-05-24T08:38:28.154Z,1508
2023-05-24T08:42:07.693Z,1417
2023-05-24T08:45:18.660Z,796
2023-05-24T08:48:43.909Z,1149
2023-05-24T08:52:09.275Z,878
2023-05-24T08:55:34.413Z,935
2023-05-24T08:58:59.607Z,963
2023-05-24T09:02:24.878Z,857
2023-05-24T09:05:50.078Z,853
2023-05-24T09:09:15.326Z,795
2023-05-24T09:12:40.513Z,838
2023-05-24T09:16:05.789Z,654
2023-05-24T09:19:31.043Z,667
2023-05-24T09:22:56.339Z,723
2023-05-24T09:26:21.608Z,845
2023-05-24T09:29:46.784Z,749
2023-05-24T09:33:12.050Z,710
2023-05-24T09:36:37.251Z,692
2023-05-24T09:40:02.492Z,653
2023-05-24T09:43:27.902Z,709
2023-05-24T09:46:53.005Z,846
2023-05-24T09:50:18.317Z,1192
2023-05-24T09:53:43.409Z,817
2023-05-24T09:57:08.699Z,966
2023-05-24T10:00:34.025Z,1168
2023-05-24T10:03:59.299Z,1549
2023-05-24T10:07:24.394Z,1510
2023-05-24T10:10:49.624Z,1844
2023-05-24T10:14:14.865Z,1015
2023-05-24T10:17:40.131Z,1492
2023-05-24T10:21:05.427Z,1087
2023-05-24T10:24:30.591Z,1712
2023-05-24T10:27:55.797Z,1017
2023-05-24T10:31:21.065Z,1545
2023-05-24T10:34:46.300Z,1690
2023-05-24T10:38:11.478Z,1142
2023-05-24T10:41:36.699Z,1454
2023-05-24T10:45:01.988Z,1441
2023-05-24T10:48:27.166Z,1454
2023-05-24T10:51:52.532Z,1403
2023-05-24T10:55:17.665Z,1478
2023-05-24T10:58:42.892Z,613
2023-05-24T11:02:08.260Z,1483
2023-05-24T11:05:33.502Z,1467
2023-05-24T11:08:58.748Z,1641
2023-05-24T11:12:23.949Z,1565
2023-05-24T11:15:49.223Z,989
2023-05-24T11:19:14.449Z,1559
2023-05-24T11:22:39.775Z,571
2023-05-24T11:26:05.013Z,539
2023-05-24T11:29:30.209Z,564
2023-05-24T11:32:55.465Z,1495
2023-05-24T11:36:20.734Z,1531
2023-05-24T11:39:46.563Z,734
2023-05-24T11:43:12.439Z,560
2023-05-24T11:46:37.044Z,1516
2023-05-24T11:50:02.276Z,1439
2023-05-24T11:53:27.520Z,1323
2023-05-24T11:56:52.779Z,1286
2023-05-24T12:00:18.200Z,1364
2023-05-24T12:03:43.375Z,1454
2023-05-24T12:07:08.711Z,1351
2023-05-24T12:10:33.947Z,751
2023-05-24T12:13:59.178Z,1261
2023-05-24T12:17:24.488Z,1249
2023-05-24T12:20:50.352Z,1390
2023-05-24T12:24:15.565Z,1389
2023-05-24T12:27:41.175Z,438
2023-05-24T12:31:06.072Z,406
2023-05-24T12:34:31.302Z,1167
2023-05-24T12:37:56.514Z,516
2023-05-24T12:41:21.702Z,1248
2023-05-24T12:44:46.950Z,1259
2023-05-24T12:48:12.199Z,1260
2023-05-24T12:51:37.489Z,1336
2023-05-24T12:55:02.752Z,425
2023-05-24T12:58:27.964Z,356
2023-05-24T13:01:53.775Z,379
2023-05-24T13:05:18.483Z,673
2023-05-24T13:08:44.003Z,1097
2023-05-24T13:12:09.244Z,380
2023-05-24T13:15:34.454Z,314
2023-05-24T13:18:59.701Z,1027
2023-05-24T13:22:24.929Z,401
2023-05-24T13:25:50.159Z,998
2023-05-24T13:32:41.224Z,947
2023-05-24T13:36:05.872Z,923
2023-05-24T13:39:31.115Z,939
2023-05-24T13:42:56.380Z,979
2023-05-24T13:46:21.604Z,683
2023-05-24T13:49:46.768Z,855
2023-05-24T13:53:12.002Z,689
2023-05-24T13:56:37.392Z,744
2023-05-24T14:00:02.692Z,733
2023-05-24T14:03:27.680Z,717
2023-05-24T14:06:52.991Z,730
2023-05-24T14:10:20.884Z,742
2023-05-24T14:14:35.860Z,779
2023-05-24T14:17:08.736Z,851
2023-05-24T14:20:34.005Z,830
2023-05-24T14:23:59.219Z,403
2023-05-24T14:27:24.477Z,278
2023-05-24T14:30:49.728Z,267
2023-05-24T14:34:14.994Z,595
2023-05-24T14:37:40.257Z,577
2023-05-24T14:41:05.489Z,562
2023-05-24T14:44:30.782Z,593
2023-05-24T14:47:56.125Z,728
2023-05-24T14:51:21.416Z,561
2023-05-24T14:54:46.643Z,394
2023-05-24T14:58:11.923Z,354
2023-05-24T15:01:37.248Z,392
2023-05-24T15:05:02.501Z,353
2023-05-24T15:08:27.725Z,366
2023-05-24T15:11:52.900Z,356
2023-05-24T15:45:06.596Z,76
2023-05-24T15:48:31.773Z,327
2023-05-24T15:52:02.538Z,292
2023-05-24T15:55:22.365Z,312
2023-05-24T15:58:47.597Z,293
2023-05-24T16:02:20.435Z,283
2023-05-24T16:05:42.510Z,276
2023-05-24T16:09:07.782Z,271
2023-05-24T16:12:33.148Z,269
2023-05-24T16:15:58.294Z,255
2023-05-24T16:19:23.604Z,251
2023-05-24T16:22:48.869Z,245
2023-05-24T16:26:14.101Z,236
2023-05-24T16:29:39.364Z,221
2023-05-24T16:33:04.725Z,206
2023-05-24T16:36:29.898Z,198
2023-05-24T16:39:55.133Z,200
2023-05-24T16:43:20.392Z,200
2023-05-24T16:46:45.718Z,203
2023-05-24T16:50:10.933Z,209
2023-05-24T16:53:36.217Z,210
2023-05-24T16:57:03.425Z,213
2023-05-24T17:00:29.088Z,207
2023-05-24T17:03:54.586Z,209
2023-05-24T17:07:19.766Z,179
2023-05-24T17:10:45.045Z,168
2023-05-24T17:14:10.318Z,156
2023-05-24T17:17:35.676Z,134
2023-05-24T17:21:00.905Z,119
2023-05-24T17:24:26.138Z,105
2023-05-24T17:27:51.460Z,102
2023-05-24T17:31:16.800Z,91
2023-05-24T17:34:41.998Z,87
2023-05-24T17:38:07.257Z,84
2023-05-24T17:41:32.508Z,78
2023-05-24T17:44:57.797Z,72
2023-05-24T17:48:23.077Z,70
2023-05-24T17:51:48.323Z,67
2023-05-24T17:55:13.570Z,65
2023-05-24T17:58:38.842Z,61
2023-05-24T18:02:04.135Z,58
2023-05-24T18:05:29.416Z,57
2023-05-24T18:08:54.720Z,53
2023-05-24T18:12:19.909Z,51
2023-05-24T18:15:45.369Z,47
2023-05-24T18:19:10.423Z,46
2023-05-24T18:22:35.603Z,42
2023-05-24T18:26:01.040Z,37
2023-05-24T18:29:26.075Z,34
2023-05-24T18:33:03.797Z,31
2023-05-24T18:36:16.619Z,26
2023-05-24T18:39:41.832Z,23
2023-05-24T18:43:07.106Z,20
2023-05-24T18:46:32.404Z,16
2023-05-24T18:49:57.641Z,15
2023-05-24T18:53:22.929Z,12
2023-05-24T18:56:48.163Z,10
2023-05-24T19:00:13.471Z,8
2023-05-24T19:03:38.646Z,6
2023-05-24T19:07:04.064Z,4
2023-05-24T19:10:29.347Z,4
2023-05-24T19:13:54.522Z,2
2023-05-24T19:17:19.768Z,1
2023-05-24T19:20:45.042Z,1
2023-05-24T19:24:10.322Z,1
2023-05-24T19:27:37.857Z,0
2023-05-24T19:31:00.779Z,1
2023-05-24T19:34:26.012Z,1
2023-05-24T19:37:51.275Z,0
2023-05-24T19:41:16.532Z,0
2023-05-24T19:44:41.827Z,0
2023-05-24T19:48:07.078Z,0
2023-05-24T19:51:32.311Z,0
2023-05-24T19:54:57.538Z,0
2023-05-24T19:58:22.771Z,0
2023-05-24T20:01:48.064Z,0
2023-05-24T20:05:13.230Z,0
2023-05-24T20:08:38.459Z,0
2023-05-24T20:12:03.697Z,0
2023-05-24T20:15:28.916Z,0
2023-05-24T20:18:54.159Z,0
2023-05-24T20:22:19.358Z,0
2023-05-24T20:25:44.703Z,0
2023-05-24T20:29:09.814Z,0
2023-05-24T20:32:35.166Z,0
2023-05-24T20:36:00.430Z,0
2023-05-24T20:39:25.618Z,0
2023-05-24T20:42:50.885Z,0
2023-05-24T20:46:16.176Z,0
2023-05-24T20:49:41.387Z,0
2023-05-24T20:53:06.657Z,0
2023-05-24T20:56:31.793Z,0
2023-05-24T20:59:56.995Z,0
2023-05-24T21:03:22.351Z,0
2023-05-24T21:06:47.540Z,0
2023-05-24T21:10:12.858Z,0
2023-05-24T21:13:38.281Z,0
2023-05-24T21:17:03.603Z,0
2023-05-24T21:20:28.806Z,0
2023-05-24T21:23:53.997Z,0
2023-05-24T21:27:19.215Z,0
2023-05-24T21:30:44.435Z,0
2023-05-24T21:34:09.644Z,0
2023-05-24T21:37:34.893Z,0
2023-05-24T21:41:00.137Z,0
2023-05-24T21:44:25.429Z,0
2023-05-24T21:47:50.662Z,0
2023-05-24T21:51:15.881Z,0
2023-05-24T21:54:41.197Z,0
2023-05-24T21:58:06.467Z,0
2023-05-24T22:01:31.769Z,0
2023-05-24T22:04:57.021Z,0
2023-05-24T22:08:22.284Z,0
2023-05-24T22:11:49.632Z,0
2023-05-24T22:15:14.921Z,0
2023-05-24T22:18:40.249Z,0
2023-05-24T22:22:05.453Z,0
2023-05-24T22:25:30.727Z,0
2023-05-24T22:28:56.006Z,0
2023-05-24T22:32:21.199Z,0
2023-05-24T22:35:46.422Z,0
2023-05-24T22:39:11.609Z,0
2023-05-24T22:42:36.946Z,0
2023-05-24T22:46:02.171Z,0
2023-05-24T22:49:27.399Z,0
2023-05-24T22:52:52.666Z,0
2023-05-24T22:56:17.871Z,0
2023-05-24T22:59:43.147Z,0
2023-05-24T23:03:08.414Z,0
2023-05-24T23:06:33.641Z,0
2023-05-24T23:09:59.008Z,0
2023-05-24T23:13:24.107Z,0
2023-05-24T23:16:49.407Z,0
2023-05-24T23:20:14.773Z,0
2023-05-24T23:23:39.993Z,0
2023-05-24T23:27:05.260Z,0
2023-05-24T23:30:30.456Z,0
2023-05-24T23:33:55.678Z,0
2023-05-24T23:37:20.946Z,0
2023-05-24T23:40:46.231Z,0
2023-05-24T23:44:11.499Z,0
2023-05-24T23:47:36.742Z,0
2023-05-24T23:51:02.018Z,0
2023-05-24T23:54:27.259Z,0
2023-05-24T23:57:52.482Z,0
